createdAt,value
2022-10-24T00:00:09.504Z,45.53
2022-10-24T00:00:32.431Z,42.28
2022-10-24T00:00:54.512Z,39.87
2022-10-24T00:01:18.681Z,34.72
2022-10-24T00:01:40.478Z,36.67
2022-10-24T00:02:02.631Z,38.40
2022-10-24T00:02:24.444Z,42.03
2022-10-24T00:02:46.336Z,42.25
2022-10-24T00:03:08.555Z,39.42
2022-10-24T00:03:30.307Z,47.72
2022-10-24T00:03:52.168Z,52.33
2022-10-24T00:04:13.945Z,45.55
2022-10-24T00:04:37.123Z,38.85
2022-10-24T00:04:58.849Z,43.17
2022-10-24T00:05:20.990Z,46.03
2022-10-24T00:05:46.990Z,41.20
2022-10-24T00:06:09.966Z,38.38
2022-10-24T00:06:32.056Z,39.50
2022-10-24T00:06:53.846Z,43.58
2022-10-24T00:07:16.294Z,37.65
2022-10-24T00:07:38.422Z,37.60
2022-10-24T00:08:00.627Z,42.72
2022-10-24T00:08:22.382Z,43.60
2022-10-24T00:08:44.667Z,39.90
2022-10-24T00:09:06.732Z,38.60
2022-10-24T00:09:28.531Z,45.83
2022-10-24T00:09:50.667Z,39.88
2022-10-24T00:10:13.823Z,39.80
2022-10-24T00:10:36.985Z,43.75
2022-10-24T00:10:58.755Z,42.65
2022-10-24T00:11:26.572Z,41.88
2022-10-24T00:11:48.298Z,35.55
2022-10-24T00:12:10.302Z,39.75
2022-10-24T00:12:32.328Z,44.72
2022-10-24T00:12:54.815Z,48.00
2022-10-24T00:13:18.006Z,36.45
2022-10-24T00:13:40.287Z,42.50
2022-10-24T00:14:02.394Z,44.13
2022-10-24T00:14:24.636Z,39.03
2022-10-24T00:14:46.766Z,39.38
2022-10-24T00:15:08.976Z,38.10
2022-10-24T00:15:30.953Z,38.10
2022-10-24T00:15:53.681Z,39.38
2022-10-24T00:16:15.843Z,36.22
2022-10-24T00:16:37.623Z,38.58
2022-10-24T00:16:59.848Z,37.45
2022-10-24T00:17:21.711Z,38.65
2022-10-24T00:17:43.476Z,39.53
2022-10-24T00:18:05.667Z,35.90
2022-10-24T00:18:27.476Z,36.75
2022-10-24T00:18:49.336Z,39.05
2022-10-24T00:19:11.112Z,40.33
2022-10-24T00:19:32.993Z,39.72
2022-10-24T00:19:54.823Z,39.40
2022-10-24T00:20:16.551Z,37.75
2022-10-24T00:20:39.138Z,40.85
2022-10-24T00:21:00.959Z,39.83
2022-10-24T00:21:23.135Z,40.50
2022-10-24T00:21:44.937Z,41.92
2022-10-24T00:22:06.846Z,42.97
2022-10-24T00:22:28.699Z,39.13
2022-10-24T00:22:50.469Z,38.28
2022-10-24T00:23:13.658Z,37.40
2022-10-24T00:23:36.075Z,39.80
2022-10-24T00:23:58.208Z,38.70
2022-10-24T00:24:20.058Z,38.17
2022-10-24T00:24:42.258Z,41.10
2022-10-24T00:25:04.620Z,38.85
2022-10-24T00:25:26.733Z,43.08
2022-10-24T00:25:48.486Z,41.15
2022-10-24T00:26:11.854Z,36.38
2022-10-24T00:26:33.920Z,32.63
2022-10-24T00:26:56.060Z,34.05
2022-10-24T00:27:18.272Z,38.03
2022-10-24T00:27:40.401Z,39.00
2022-10-24T00:28:02.512Z,38.00
2022-10-24T00:28:24.343Z,43.80
2022-10-24T00:28:46.816Z,36.00
2022-10-24T00:29:08.741Z,32.42
2022-10-24T00:29:30.891Z,39.75
2022-10-24T00:29:52.640Z,40.22
2022-10-24T00:30:14.798Z,35.10
2022-10-24T00:30:36.591Z,33.10
2022-10-24T00:30:58.573Z,35.28
2022-10-24T00:31:20.395Z,36.17
2022-10-24T00:31:42.375Z,36.83
2022-10-24T00:32:04.645Z,38.08
2022-10-24T00:32:26.373Z,34.90
2022-10-24T00:32:48.457Z,35.90
2022-10-24T00:33:10.208Z,35.88
2022-10-24T00:33:32.626Z,37.83
2022-10-24T00:33:56.704Z,36.88
2022-10-24T00:34:18.467Z,36.63
2022-10-24T00:34:40.729Z,33.20
2022-10-24T00:35:02.908Z,37.97
2022-10-24T00:35:24.677Z,39.55
2022-10-24T00:35:46.945Z,43.92
2022-10-24T00:36:22.572Z,36.38
2022-10-24T00:36:44.310Z,40.08
2022-10-24T00:37:06.646Z,45.03
2022-10-24T00:37:28.426Z,35.00
2022-10-24T00:37:50.598Z,39.50
2022-10-24T00:38:12.356Z,38.72
2022-10-24T00:38:34.469Z,41.92
2022-10-24T00:38:56.318Z,33.92
2022-10-24T00:39:18.466Z,30.92
2022-10-24T00:39:40.268Z,34.67
2022-10-24T00:40:02.743Z,35.35
2022-10-24T00:40:24.546Z,34.70
2022-10-24T00:40:46.302Z,36.88
2022-10-24T00:41:21.893Z,37.92
2022-10-24T00:41:43.884Z,35.47
2022-10-24T00:42:06.216Z,33.85
2022-10-24T00:42:27.976Z,37.47
2022-10-24T00:42:50.060Z,37.10
2022-10-24T00:43:22.978Z,36.10
2022-10-24T00:43:45.536Z,38.60
2022-10-24T00:44:27.464Z,38.22
2022-10-24T00:44:50.614Z,38.00
2022-10-24T00:45:31.458Z,37.72
2022-10-24T00:45:55.177Z,37.03
2022-10-24T00:46:19.469Z,34.45
2022-10-24T00:46:45.545Z,35.85
2022-10-24T00:47:14.972Z,35.10
2022-10-24T00:47:36.786Z,34.17
2022-10-24T00:47:58.923Z,35.47
2022-10-24T00:48:37.939Z,36.45
2022-10-24T00:49:00.366Z,36.42
2022-10-24T00:49:27.235Z,34.72
2022-10-24T00:49:55.340Z,38.50
2022-10-24T00:50:17.066Z,37.97
2022-10-24T00:50:39.235Z,34.90
2022-10-24T00:51:06.601Z,35.97
2022-10-24T00:51:32.681Z,36.65
2022-10-24T00:51:58.896Z,37.42
2022-10-24T00:52:27.894Z,36.20
2022-10-24T00:52:50.199Z,35.35
2022-10-24T00:53:12.765Z,36.30
2022-10-24T00:53:38.698Z,41.88
2022-10-24T00:54:03.557Z,37.22
2022-10-24T00:54:25.579Z,40.72
2022-10-24T00:54:47.880Z,38.22
2022-10-24T00:55:11.669Z,37.75
2022-10-24T00:55:33.788Z,37.50
2022-10-24T00:55:59.312Z,35.17
2022-10-24T00:56:25.709Z,37.70
2022-10-24T00:57:16.640Z,34.92
2022-10-24T00:57:42.249Z,37.03
2022-10-24T00:58:05.384Z,33.17
2022-10-24T00:58:30.365Z,35.22
2022-10-24T00:58:53.717Z,38.30
2022-10-24T00:59:17.306Z,35.80
2022-10-24T00:59:41.403Z,39.15
2022-10-24T01:00:13.777Z,34.33
2022-10-24T01:00:35.768Z,35.15
2022-10-24T01:00:58.601Z,35.78
2022-10-24T01:01:20.646Z,36.60
2022-10-24T01:01:44.347Z,36.22
2022-10-24T01:02:06.126Z,33.72
2022-10-24T01:02:27.954Z,35.60
2022-10-24T01:02:50.208Z,35.72
2022-10-24T01:03:12.948Z,35.58
2022-10-24T01:03:34.994Z,35.55
2022-10-24T01:03:56.945Z,34.22
2022-10-24T01:04:18.674Z,35.65
2022-10-24T01:04:40.788Z,35.33
2022-10-24T01:05:03.686Z,36.88
2022-10-24T01:05:28.237Z,33.88
2022-10-24T01:06:14.551Z,37.30
2022-10-24T01:07:00.447Z,37.60
2022-10-24T01:08:01.165Z,37.17
2022-10-24T01:08:29.266Z,37.95
2022-10-24T01:09:14.007Z,36.05
2022-10-24T01:09:41.434Z,38.58
2022-10-24T01:10:03.520Z,43.60
2022-10-24T01:10:42.923Z,37.22
2022-10-24T01:11:25.474Z,37.80
2022-10-24T01:11:56.162Z,38.80
2022-10-24T01:12:23.805Z,34.80
2022-10-24T01:13:09.193Z,41.35
2022-10-24T01:14:03.027Z,41.60
2022-10-24T01:15:02.073Z,39.13
2022-10-24T01:15:26.932Z,39.25
2022-10-24T01:16:08.233Z,38.40
2022-10-24T01:16:38.413Z,40.47
2022-10-24T01:17:27.819Z,36.03
2022-10-24T01:17:56.762Z,41.80
2022-10-24T01:18:39.634Z,41.08
2022-10-24T01:19:16.346Z,37.85
2022-10-24T01:19:40.921Z,40.30
2022-10-24T01:20:23.608Z,37.17
2022-10-24T01:21:03.609Z,46.83
2022-10-24T01:21:43.065Z,38.22
2022-10-24T01:22:13.023Z,47.05
2022-10-24T01:22:52.481Z,39.95
2022-10-24T01:23:20.165Z,38.65
2022-10-24T01:23:45.343Z,44.22
2022-10-24T01:24:24.006Z,40.28
2022-10-24T01:25:42.246Z,40.85
2022-10-24T01:26:21.740Z,39.28
2022-10-24T01:26:59.024Z,44.08
2022-10-24T01:27:29.805Z,39.20
2022-10-24T01:28:20.368Z,36.22
2022-10-24T01:29:01.729Z,37.20
2022-10-24T01:29:23.404Z,37.88
2022-10-24T01:29:51.187Z,37.70
2022-10-24T01:30:14.221Z,33.13
2022-10-24T01:30:43.894Z,34.10
2022-10-24T01:31:14.135Z,31.73
2022-10-24T01:31:49.749Z,40.08
2022-10-24T01:32:32.084Z,38.92
2022-10-24T01:33:09.516Z,35.63
2022-10-24T01:33:40.284Z,35.72
2022-10-24T01:34:11.120Z,37.83
2022-10-24T01:34:45.428Z,33.95
2022-10-24T01:35:18.863Z,35.50
2022-10-24T01:35:47.995Z,37.03
2022-10-24T01:36:16.135Z,33.92
2022-10-24T01:37:09.776Z,37.33
2022-10-24T01:37:38.141Z,36.67
2022-10-24T01:38:03.246Z,34.80
2022-10-24T01:38:45.627Z,35.45
2022-10-24T01:39:13.503Z,35.90
2022-10-24T01:39:38.751Z,34.70
2022-10-24T01:40:21.685Z,34.40
2022-10-24T01:40:53.120Z,32.97
2022-10-24T01:41:21.063Z,39.60
2022-10-24T01:41:44.915Z,34.83
2022-10-24T01:42:09.205Z,33.28
2022-10-24T01:42:32.927Z,35.20
2022-10-24T01:42:57.644Z,36.40
2022-10-24T01:43:24.815Z,38.17
2022-10-24T01:43:50.714Z,36.55
2022-10-24T01:44:24.457Z,34.75
2022-10-24T01:44:50.436Z,36.75
2022-10-24T01:45:16.430Z,37.00
2022-10-24T01:45:41.949Z,36.72
2022-10-24T01:46:16.934Z,38.70
2022-10-24T01:46:42.394Z,38.50
2022-10-24T01:47:15.951Z,39.35
2022-10-24T01:47:39.921Z,37.17
2022-10-24T01:48:03.588Z,38.75
2022-10-24T01:48:27.093Z,40.40
2022-10-24T01:48:55.089Z,40.50
2022-10-24T01:49:18.415Z,38.03
2022-10-24T01:49:41.880Z,35.90
2022-10-24T01:50:06.587Z,39.05
2022-10-24T01:50:29.525Z,36.97
2022-10-24T01:50:54.559Z,37.10
2022-10-24T01:51:19.318Z,41.63
2022-10-24T01:51:42.288Z,39.22
2022-10-24T01:52:10.008Z,39.33
2022-10-24T01:52:33.879Z,35.28
2022-10-24T01:52:58.325Z,37.15
2022-10-24T01:53:24.953Z,37.17
2022-10-24T01:53:48.562Z,41.72
2022-10-24T01:54:11.545Z,38.50
2022-10-24T01:54:33.975Z,37.70
2022-10-24T01:54:56.222Z,38.05
2022-10-24T01:55:18.327Z,37.58
2022-10-24T01:55:40.835Z,36.47
2022-10-24T01:56:03.289Z,37.38
2022-10-24T01:56:28.274Z,37.30
2022-10-24T01:56:51.018Z,33.90
2022-10-24T01:57:14.257Z,37.58
2022-10-24T01:57:36.028Z,35.80
2022-10-24T01:57:57.782Z,36.17
2022-10-24T01:58:19.487Z,36.83
2022-10-24T01:58:41.235Z,37.83
2022-10-24T01:59:08.581Z,36.40
2022-10-24T01:59:30.686Z,38.00
2022-10-24T01:59:52.841Z,38.40
2022-10-24T02:00:24.986Z,36.38
2022-10-24T02:00:50.565Z,37.75
2022-10-24T02:01:16.562Z,40.22
2022-10-24T02:01:39.570Z,36.35
2022-10-24T02:02:21.946Z,37.85
2022-10-24T02:02:46.466Z,36.92
2022-10-24T02:03:16.811Z,38.15
2022-10-24T02:03:43.417Z,39.58
2022-10-24T02:04:10.779Z,40.45
2022-10-24T02:04:36.150Z,39.85
2022-10-24T02:05:04.102Z,38.17
2022-10-24T02:05:28.335Z,38.85
2022-10-24T02:05:54.020Z,37.40
2022-10-24T02:06:25.728Z,37.92
2022-10-24T02:06:48.386Z,37.65
2022-10-24T02:07:12.873Z,40.75
2022-10-24T02:07:37.140Z,37.20
2022-10-24T02:08:02.775Z,39.10
2022-10-24T02:08:30.920Z,41.13
2022-10-24T02:08:58.460Z,40.53
2022-10-24T02:09:21.474Z,40.55
2022-10-24T02:09:45.185Z,39.08
2022-10-24T02:10:12.966Z,38.20
2022-10-24T02:10:39.588Z,42.35
2022-10-24T02:11:05.757Z,42.85
2022-10-24T02:11:27.932Z,37.15
2022-10-24T02:11:50.513Z,37.22
2022-10-24T02:12:16.040Z,38.47
2022-10-24T02:12:40.296Z,41.58
2022-10-24T02:13:31.594Z,41.85
2022-10-24T02:14:16.509Z,42.00
2022-10-24T02:14:46.605Z,39.28
2022-10-24T02:15:11.727Z,40.20
2022-10-24T02:15:35.804Z,41.63
2022-10-24T02:15:59.273Z,42.22
2022-10-24T02:16:21.602Z,41.25
2022-10-24T02:16:44.862Z,40.47
2022-10-24T02:17:07.290Z,37.95
2022-10-24T02:17:30.200Z,40.50
2022-10-24T02:17:53.306Z,41.17
2022-10-24T02:18:16.017Z,41.58
2022-10-24T02:18:39.559Z,41.70
2022-10-24T02:19:01.624Z,41.17
2022-10-24T02:19:23.416Z,42.80
2022-10-24T02:19:46.649Z,44.28
2022-10-24T02:20:09.199Z,43.60
2022-10-24T02:20:35.798Z,44.53
2022-10-24T02:21:25.940Z,44.58
2022-10-24T02:22:19.008Z,44.08
2022-10-24T02:22:59.952Z,43.03
2022-10-24T02:23:51.992Z,43.63
2022-10-24T02:24:24.936Z,47.53
2022-10-24T02:24:53.990Z,42.92
2022-10-24T02:25:33.155Z,43.33
2022-10-24T02:25:58.943Z,45.58
2022-10-24T02:26:31.141Z,45.38
2022-10-24T02:27:07.082Z,43.08
2022-10-24T02:28:11.010Z,45.13
2022-10-24T02:28:35.982Z,44.13
2022-10-24T02:29:01.731Z,47.95
2022-10-24T02:29:33.014Z,43.83
2022-10-24T02:29:59.077Z,45.03
2022-10-24T02:30:24.022Z,44.25
2022-10-24T02:30:57.264Z,44.22
2022-10-24T02:31:22.801Z,47.00
2022-10-24T02:31:52.942Z,44.33
2022-10-24T02:32:20.556Z,45.35
2022-10-24T02:32:45.488Z,42.15
2022-10-24T02:33:09.184Z,45.08
2022-10-24T02:33:32.530Z,42.95
2022-10-24T02:33:55.033Z,44.58
2022-10-24T02:34:19.397Z,42.85
2022-10-24T02:34:42.949Z,46.83
2022-10-24T02:35:05.828Z,45.20
2022-10-24T02:35:39.674Z,46.40
2022-10-24T02:36:03.396Z,44.58
2022-10-24T02:36:29.207Z,43.72
2022-10-24T02:36:53.591Z,43.92
2022-10-24T02:37:16.799Z,44.08
2022-10-24T02:37:47.571Z,43.35
2022-10-24T02:38:27.470Z,42.53
2022-10-24T02:38:51.492Z,42.58
2022-10-24T02:39:14.276Z,44.63
2022-10-24T02:39:37.338Z,42.72
2022-10-24T02:40:00.074Z,46.42
2022-10-24T02:40:22.826Z,45.33
2022-10-24T02:40:45.266Z,44.38
2022-10-24T02:41:11.883Z,44.42
2022-10-24T02:41:35.861Z,44.33
2022-10-24T02:41:58.828Z,40.95
2022-10-24T02:42:22.200Z,42.40
2022-10-24T02:42:45.979Z,44.22
2022-10-24T02:43:08.901Z,44.33
2022-10-24T02:43:32.801Z,42.85
2022-10-24T02:43:56.230Z,43.92
2022-10-24T02:44:18.930Z,42.70
2022-10-24T02:44:42.524Z,42.80
2022-10-24T02:45:05.456Z,42.33
2022-10-24T02:45:28.704Z,42.40
2022-10-24T02:45:54.041Z,45.15
2022-10-24T02:46:16.445Z,44.10
2022-10-24T02:46:39.497Z,43.20
2022-10-24T02:47:02.665Z,44.00
2022-10-24T02:47:27.058Z,44.63
2022-10-24T02:47:50.611Z,40.35
2022-10-24T02:48:15.029Z,42.38
2022-10-24T02:48:39.832Z,41.75
2022-10-24T02:49:02.908Z,42.88
2022-10-24T02:49:25.113Z,44.13
2022-10-24T02:49:47.379Z,41.90
2022-10-24T02:50:09.801Z,40.72
2022-10-24T02:50:32.689Z,40.92
2022-10-24T02:50:54.816Z,41.53
2022-10-24T02:51:20.301Z,43.58
2022-10-24T02:51:44.927Z,42.65
2022-10-24T02:52:07.377Z,40.78
2022-10-24T02:52:30.406Z,39.83
2022-10-24T02:52:52.134Z,41.08
2022-10-24T02:53:15.895Z,42.72
2022-10-24T02:53:38.066Z,45.22
2022-10-24T02:54:00.710Z,43.03
2022-10-24T02:54:22.679Z,41.97
2022-10-24T02:54:44.515Z,42.60
2022-10-24T02:55:06.897Z,43.72
2022-10-24T02:55:28.676Z,43.45
2022-10-24T02:55:50.506Z,41.55
2022-10-24T02:56:12.289Z,39.80
2022-10-24T02:56:34.738Z,40.40
2022-10-24T02:57:01.341Z,39.20
2022-10-24T02:57:23.832Z,43.33
2022-10-24T02:57:45.934Z,43.55
2022-10-24T02:58:07.743Z,42.10
2022-10-24T02:58:29.850Z,42.28
2022-10-24T02:58:51.570Z,42.65
2022-10-24T02:59:13.401Z,46.47
2022-10-24T02:59:35.184Z,41.55
2022-10-24T02:59:57.306Z,38.28
2022-10-24T03:00:19.502Z,40.28
2022-10-24T03:00:41.328Z,41.22
2022-10-24T03:01:03.642Z,41.83
2022-10-24T03:01:25.764Z,40.27
2022-10-24T03:01:47.600Z,41.10
2022-10-24T03:02:11.067Z,43.40
2022-10-24T03:02:33.863Z,42.05
2022-10-24T03:02:56.073Z,41.03
2022-10-24T03:03:17.852Z,39.58
2022-10-24T03:03:39.641Z,43.20
2022-10-24T03:04:01.791Z,42.88
2022-10-24T03:04:23.919Z,42.63
2022-10-24T03:04:46.037Z,42.20
2022-10-24T03:05:08.111Z,42.05
2022-10-24T03:05:30.230Z,40.70
2022-10-24T03:05:51.982Z,38.55
2022-10-24T03:06:13.693Z,41.95
2022-10-24T03:06:35.510Z,39.85
2022-10-24T03:06:57.260Z,43.25
2022-10-24T03:07:19.054Z,43.53
2022-10-24T03:07:40.961Z,42.53
2022-10-24T03:08:03.088Z,41.33
2022-10-24T03:08:25.199Z,43.85
2022-10-24T03:08:47.297Z,42.03
2022-10-24T03:09:09.412Z,40.83
2022-10-24T03:09:31.182Z,43.17
2022-10-24T03:09:52.893Z,43.33
2022-10-24T03:10:14.725Z,42.83
2022-10-24T03:10:36.475Z,41.22
2022-10-24T03:10:58.292Z,41.63
2022-10-24T03:11:20.028Z,46.80
2022-10-24T03:11:41.839Z,44.20
2022-10-24T03:12:04.626Z,40.72
2022-10-24T03:12:26.423Z,40.47
2022-10-24T03:12:48.211Z,39.22
2022-10-24T03:13:09.907Z,41.42
2022-10-24T03:13:32.064Z,40.60
2022-10-24T03:13:54.173Z,37.97
2022-10-24T03:14:16.575Z,41.95
2022-10-24T03:14:38.685Z,39.45
2022-10-24T03:15:00.777Z,40.60
2022-10-24T03:15:22.613Z,38.25
2022-10-24T03:15:44.446Z,41.25
2022-10-24T03:16:08.940Z,40.25
2022-10-24T03:16:34.051Z,42.63
2022-10-24T03:16:56.241Z,40.92
2022-10-24T03:17:17.952Z,41.70
2022-10-24T03:17:39.740Z,39.00
2022-10-24T03:18:01.471Z,38.45
2022-10-24T03:18:23.342Z,36.08
2022-10-24T03:18:45.174Z,38.00
2022-10-24T03:19:06.889Z,41.08
2022-10-24T03:19:28.604Z,41.22
2022-10-24T03:19:50.399Z,40.83
2022-10-24T03:20:12.520Z,40.53
2022-10-24T03:20:34.640Z,40.97
2022-10-24T03:20:56.432Z,37.35
2022-10-24T03:21:18.550Z,38.03
2022-10-24T03:21:41.608Z,39.80
2022-10-24T03:22:03.352Z,42.80
2022-10-24T03:22:29.841Z,37.60
2022-10-24T03:22:52.852Z,40.67
2022-10-24T03:23:14.860Z,40.20
2022-10-24T03:23:36.583Z,42.15
2022-10-24T03:23:58.428Z,38.72
2022-10-24T03:24:31.022Z,39.00
2022-10-24T03:25:03.547Z,40.25
2022-10-24T03:25:25.261Z,41.15
2022-10-24T03:25:47.038Z,39.60
2022-10-24T03:26:08.871Z,39.75
2022-10-24T03:26:31.024Z,41.85
2022-10-24T03:26:53.215Z,39.33
2022-10-24T03:27:15.207Z,41.50
2022-10-24T03:27:36.979Z,41.03
2022-10-24T03:27:58.877Z,41.22
2022-10-24T03:28:20.984Z,38.60
2022-10-24T03:28:42.717Z,40.13
2022-10-24T03:29:04.942Z,41.72
2022-10-24T03:29:26.726Z,39.38
2022-10-24T03:29:48.477Z,39.55
2022-10-24T03:30:10.936Z,40.90
2022-10-24T03:30:33.063Z,40.10
2022-10-24T03:30:56.323Z,38.38
2022-10-24T03:31:18.106Z,36.67
2022-10-24T03:31:41.308Z,40.33
2022-10-24T03:32:03.509Z,39.83
2022-10-24T03:32:51.912Z,36.75
2022-10-24T03:33:13.669Z,38.55
2022-10-24T03:33:35.684Z,37.17
2022-10-24T03:33:57.941Z,39.70
2022-10-24T03:34:20.047Z,38.45
2022-10-24T03:34:42.335Z,41.72
2022-10-24T03:35:04.506Z,43.05
2022-10-24T03:35:26.622Z,37.63
2022-10-24T03:35:52.164Z,36.47
2022-10-24T03:36:13.911Z,38.20
2022-10-24T03:36:35.916Z,37.00
2022-10-24T03:36:58.023Z,37.45
2022-10-24T03:37:19.751Z,37.85
2022-10-24T03:37:42.361Z,36.97
2022-10-24T03:38:04.517Z,37.88
2022-10-24T03:38:26.672Z,35.67
2022-10-24T03:38:48.419Z,38.78
2022-10-24T03:39:10.329Z,39.85
2022-10-24T03:39:32.494Z,39.75
2022-10-24T03:39:54.258Z,38.90
2022-10-24T03:40:16.060Z,39.47
2022-10-24T03:40:38.412Z,36.70
2022-10-24T03:41:00.627Z,38.10
2022-10-24T03:41:22.433Z,38.97
2022-10-24T03:41:44.581Z,45.33
2022-10-24T03:42:06.359Z,37.25
2022-10-24T03:42:28.305Z,40.17
2022-10-24T03:42:50.011Z,37.22
2022-10-24T03:43:11.749Z,36.55
2022-10-24T03:43:33.617Z,38.75
2022-10-24T03:43:55.726Z,36.67
2022-10-24T03:44:17.904Z,37.42
2022-10-24T03:44:40.783Z,36.97
2022-10-24T03:45:02.928Z,38.08
2022-10-24T03:45:25.067Z,39.05
2022-10-24T03:45:47.363Z,39.42
2022-10-24T03:46:09.495Z,38.80
2022-10-24T03:46:31.219Z,36.63
2022-10-24T03:46:53.374Z,36.40
2022-10-24T03:47:15.707Z,38.25
2022-10-24T03:47:37.838Z,37.55
2022-10-24T03:47:59.845Z,36.95
2022-10-24T03:48:21.968Z,36.20
2022-10-24T03:48:43.771Z,37.00
2022-10-24T03:49:05.500Z,38.13
2022-10-24T03:49:27.685Z,39.67
2022-10-24T03:49:49.820Z,36.42
2022-10-24T03:50:12.076Z,36.53
2022-10-24T03:50:34.263Z,37.13
2022-10-24T03:50:56.030Z,39.17
2022-10-24T03:51:18.136Z,35.80
2022-10-24T03:51:39.885Z,38.42
2022-10-24T03:52:02.077Z,37.75
2022-10-24T03:52:23.784Z,38.78
2022-10-24T03:52:46.369Z,40.72
2022-10-24T03:53:08.383Z,40.28
2022-10-24T03:53:30.493Z,36.90
2022-10-24T03:53:52.606Z,39.90
2022-10-24T03:54:15.332Z,40.22
2022-10-24T03:54:38.719Z,39.13
2022-10-24T03:55:00.939Z,39.15
2022-10-24T03:55:23.155Z,39.08
2022-10-24T03:55:44.914Z,39.83
2022-10-24T03:56:07.214Z,41.42
2022-10-24T03:56:29.336Z,39.33
2022-10-24T03:56:51.162Z,38.67
2022-10-24T03:57:13.004Z,39.35
2022-10-24T03:57:35.258Z,39.83
2022-10-24T03:57:57.106Z,40.28
2022-10-24T03:58:19.246Z,37.42
2022-10-24T03:58:40.984Z,36.47
2022-10-24T03:59:03.139Z,37.83
2022-10-24T03:59:24.853Z,40.60
2022-10-24T03:59:46.639Z,38.20
2022-10-24T04:00:09.195Z,39.28
2022-10-24T04:00:32.494Z,37.33
2022-10-24T04:00:57.071Z,39.67
2022-10-24T04:01:19.517Z,39.60
2022-10-24T04:01:41.783Z,41.33
2022-10-24T04:02:04.623Z,38.22
2022-10-24T04:02:26.457Z,36.53
2022-10-24T04:02:50.513Z,40.83
2022-10-24T04:03:12.640Z,39.03
2022-10-24T04:03:34.756Z,39.97
2022-10-24T04:03:56.483Z,37.90
2022-10-24T04:04:18.256Z,38.33
2022-10-24T04:04:40.385Z,38.30
2022-10-24T04:05:02.185Z,34.05
2022-10-24T04:05:23.931Z,37.63
2022-10-24T04:05:45.679Z,38.67
2022-10-24T04:06:07.737Z,40.38
2022-10-24T04:06:31.398Z,38.72
2022-10-24T04:06:56.277Z,37.72
2022-10-24T04:07:18.172Z,37.08
2022-10-24T04:07:40.377Z,38.97
2022-10-24T04:08:02.673Z,39.80
2022-10-24T04:08:24.784Z,38.20
2022-10-24T04:08:46.940Z,36.78
2022-10-24T04:09:08.746Z,36.13
2022-10-24T04:09:30.876Z,36.85
2022-10-24T04:09:52.606Z,40.92
2022-10-24T04:10:14.382Z,42.03
2022-10-24T04:10:36.214Z,35.47
2022-10-24T04:10:57.945Z,40.28
2022-10-24T04:11:20.115Z,38.88
2022-10-24T04:11:41.842Z,36.67
2022-10-24T04:12:04.203Z,36.78
2022-10-24T04:12:26.340Z,36.05
2022-10-24T04:12:48.124Z,37.92
2022-10-24T04:13:10.082Z,39.03
2022-10-24T04:13:32.246Z,38.58
2022-10-24T04:13:54.422Z,40.65
2022-10-24T04:14:16.199Z,40.45
2022-10-24T04:14:38.411Z,37.42
2022-10-24T04:15:03.955Z,36.75
2022-10-24T04:15:27.207Z,36.15
2022-10-24T04:15:48.954Z,38.58
2022-10-24T04:16:11.131Z,36.70
2022-10-24T04:16:34.816Z,36.30
2022-10-24T04:16:56.732Z,39.30
2022-10-24T04:17:18.860Z,38.13
2022-10-24T04:17:40.693Z,36.30
2022-10-24T04:18:02.835Z,37.03
2022-10-24T04:18:24.612Z,36.65
2022-10-24T04:18:46.421Z,36.35
2022-10-24T04:19:08.206Z,34.63
2022-10-24T04:19:30.320Z,38.65
2022-10-24T04:19:52.573Z,34.55
2022-10-24T04:20:14.394Z,35.85
2022-10-24T04:20:36.667Z,36.67
2022-10-24T04:20:58.622Z,36.10
2022-10-24T04:21:22.028Z,35.72
2022-10-24T04:21:44.778Z,37.88
2022-10-24T04:22:07.023Z,36.15
2022-10-24T04:22:28.915Z,36.17
2022-10-24T04:22:51.027Z,37.00
2022-10-24T04:23:12.750Z,35.87
2022-10-24T04:23:38.489Z,36.03
2022-10-24T04:24:00.624Z,33.33
2022-10-24T04:24:22.417Z,35.83
2022-10-24T04:24:44.239Z,34.13
2022-10-24T04:25:06.305Z,35.55
2022-10-24T04:25:28.412Z,34.78
2022-10-24T04:25:50.542Z,34.22
2022-10-24T04:26:14.951Z,36.35
2022-10-24T04:26:36.726Z,35.70
2022-10-24T04:26:58.836Z,35.78
2022-10-24T04:27:20.605Z,34.03
2022-10-24T04:27:42.597Z,38.03
2022-10-24T04:28:04.418Z,39.05
2022-10-24T04:28:27.118Z,35.33
2022-10-24T04:28:49.099Z,34.13
2022-10-24T04:29:11.245Z,34.03
2022-10-24T04:29:33.479Z,34.90
2022-10-24T04:29:55.262Z,33.67
2022-10-24T04:30:17.380Z,34.10
2022-10-24T04:30:39.246Z,34.60
2022-10-24T04:31:01.031Z,34.25
2022-10-24T04:31:23.780Z,34.33
2022-10-24T04:31:45.640Z,33.80
2022-10-24T04:32:07.369Z,32.63
2022-10-24T04:32:29.667Z,37.65
2022-10-24T04:32:51.370Z,38.53
2022-10-24T04:33:13.093Z,38.50
2022-10-24T04:33:36.338Z,32.05
2022-10-24T04:33:58.099Z,34.10
2022-10-24T04:34:20.223Z,35.38
2022-10-24T04:34:42.380Z,36.80
2022-10-24T04:35:05.088Z,36.75
2022-10-24T04:35:27.133Z,33.53
2022-10-24T04:35:50.198Z,34.08
2022-10-24T04:36:12.011Z,32.30
2022-10-24T04:36:34.781Z,32.30
2022-10-24T04:36:56.510Z,33.83
2022-10-24T04:37:18.686Z,39.75
2022-10-24T04:37:40.433Z,34.17
2022-10-24T04:38:02.420Z,34.63
2022-10-24T04:38:24.154Z,36.53
2022-10-24T04:38:45.853Z,33.92
2022-10-24T04:39:07.839Z,38.60
2022-10-24T04:39:29.602Z,36.08
2022-10-24T04:39:53.730Z,35.03
2022-10-24T04:40:15.853Z,37.30
2022-10-24T04:40:37.964Z,36.53
2022-10-24T04:40:59.772Z,36.47
2022-10-24T04:41:21.666Z,37.13
2022-10-24T04:41:43.800Z,34.50
2022-10-24T04:42:05.914Z,35.42
2022-10-24T04:42:28.053Z,36.38
2022-10-24T04:42:49.852Z,36.25
2022-10-24T04:43:11.977Z,36.28
2022-10-24T04:43:33.722Z,36.83
2022-10-24T04:43:55.494Z,37.90
2022-10-24T04:44:17.270Z,37.63
2022-10-24T04:44:39.023Z,35.95
2022-10-24T04:45:01.152Z,37.08
2022-10-24T04:45:22.862Z,36.80
2022-10-24T04:45:44.676Z,36.10
2022-10-24T04:46:07.070Z,35.38
2022-10-24T04:46:28.799Z,36.45
2022-10-24T04:46:51.541Z,38.33
2022-10-24T04:47:13.990Z,37.55
2022-10-24T04:47:36.056Z,36.15
2022-10-24T04:47:58.225Z,35.92
2022-10-24T04:48:20.324Z,35.65
2022-10-24T04:48:42.024Z,38.97
2022-10-24T04:49:04.413Z,37.60
2022-10-24T04:49:26.213Z,40.85
2022-10-24T04:49:48.313Z,41.53
2022-10-24T04:50:10.314Z,63.08
2022-10-24T04:50:32.421Z,63.28
2022-10-24T04:50:54.745Z,70.90
2022-10-24T04:51:19.981Z,66.75
2022-10-24T04:51:44.061Z,58.72
2022-10-24T04:52:06.279Z,49.80
2022-10-24T04:52:28.015Z,50.92
2022-10-24T04:52:49.748Z,47.90
2022-10-24T04:53:12.263Z,46.45
2022-10-24T04:53:34.033Z,67.80
2022-10-24T04:53:55.845Z,68.22
2022-10-24T04:54:17.562Z,50.58
2022-10-24T04:54:39.421Z,60.28
2022-10-24T04:55:01.575Z,59.60
2022-10-24T04:55:23.338Z,48.92
2022-10-24T04:55:45.918Z,42.78
2022-10-24T04:56:08.271Z,40.05
2022-10-24T04:56:30.426Z,41.13
2022-10-24T04:56:52.535Z,44.45
2022-10-24T04:57:14.325Z,44.90
2022-10-24T04:57:36.040Z,46.25
2022-10-24T04:57:57.823Z,59.80
2022-10-24T04:58:20.872Z,53.45
2022-10-24T04:58:42.606Z,47.53
2022-10-24T04:59:04.878Z,48.17
2022-10-24T04:59:26.846Z,45.22
2022-10-24T04:59:49.741Z,42.13
2022-10-24T05:00:12.129Z,47.58
2022-10-24T05:00:33.949Z,44.33
2022-10-24T05:00:55.698Z,41.42
2022-10-24T05:01:18.244Z,40.30
2022-10-24T05:01:40.507Z,40.80
2022-10-24T05:02:02.753Z,43.00
2022-10-24T05:02:24.663Z,45.95
2022-10-24T05:02:46.490Z,45.20
2022-10-24T05:03:08.678Z,44.47
2022-10-24T05:03:30.859Z,41.55
2022-10-24T05:03:52.754Z,42.28
2022-10-24T05:04:14.675Z,47.95
2022-10-24T05:04:36.782Z,46.47
2022-10-24T05:04:58.911Z,48.65
2022-10-24T05:05:21.301Z,49.33
2022-10-24T05:05:43.541Z,109.15
2022-10-24T05:06:05.590Z,142.82
2022-10-24T05:06:27.749Z,81.03
2022-10-24T05:06:49.893Z,63.15
2022-10-24T05:07:11.698Z,42.70
2022-10-24T05:07:33.893Z,43.08
2022-10-24T05:07:56.029Z,45.55
2022-10-24T05:08:18.415Z,46.90
2022-10-24T05:08:40.525Z,50.40
2022-10-24T05:09:02.816Z,49.42
2022-10-24T05:09:24.592Z,112.03
2022-10-24T05:09:46.719Z,104.15
2022-10-24T05:10:09.153Z,97.85
2022-10-24T05:10:31.290Z,65.43
2022-10-24T05:10:53.260Z,58.47
2022-10-24T05:11:14.999Z,66.32
2022-10-24T05:11:37.200Z,46.33
2022-10-24T05:11:59.388Z,42.05
2022-10-24T05:12:21.333Z,63.97
2022-10-24T05:12:44.625Z,50.50
2022-10-24T05:13:07.324Z,47.33
2022-10-24T05:13:31.801Z,44.33
2022-10-24T05:13:56.322Z,40.45
2022-10-24T05:14:18.543Z,48.15
2022-10-24T05:14:40.672Z,49.95
2022-10-24T05:15:02.957Z,44.88
2022-10-24T05:15:25.197Z,55.60